sensor_id;sensor_type;location;lat;lon;timestamp;temperature;humidity
24412;DHT22;12544;46.760;15.942;2023-07-29T00:00:40;20.60;99.90
24412;DHT22;12544;46.760;15.942;2023-07-29T00:03:05;20.60;99.90
24412;DHT22;12544;46.760;15.942;2023-07-29T00:05:32;20.60;99.90
24412;DHT22;12544;46.760;15.942;2023-07-29T00:07:58;20.60;99.90
24412;DHT22;12544;46.760;15.942;2023-07-29T00:10:23;20.60;99.90
24412;DHT22;12544;46.760;15.942;2023-07-29T00:12:49;20.50;99.90
24412;DHT22;12544;46.760;15.942;2023-07-29T00:15:15;20.50;99.90
24412;DHT22;12544;46.760;15.942;2023-07-29T00:17:40;20.40;99.90
24412;DHT22;12544;46.760;15.942;2023-07-29T00:20:06;20.30;99.90
24412;DHT22;12544;46.760;15.942;2023-07-29T00:22:32;20.20;99.90
24412;DHT22;12544;46.760;15.942;2023-07-29T00:24:58;20.20;99.90
24412;DHT22;12544;46.760;15.942;2023-07-29T00:27:25;20.10;99.90
24412;DHT22;12544;46.760;15.942;2023-07-29T00:29:50;20.10;99.90
24412;DHT22;12544;46.760;15.942;2023-07-29T00:32:16;20.20;99.90
24412;DHT22;12544;46.760;15.942;2023-07-29T00:34:42;20.20;99.90
24412;DHT22;12544;46.760;15.942;2023-07-29T00:37:08;20.20;99.90
24412;DHT22;12544;46.760;15.942;2023-07-29T00:39:33;20.30;99.90
24412;DHT22;12544;46.760;15.942;2023-07-29T00:41:59;20.30;99.90
24412;DHT22;12544;46.760;15.942;2023-07-29T00:44:24;20.40;99.90
24412;DHT22;12544;46.760;15.942;2023-07-29T00:46:54;20.30;99.90
24412;DHT22;12544;46.760;15.942;2023-07-29T00:49:21;20.30;99.90
24412;DHT22;12544;46.760;15.942;2023-07-29T00:51:47;20.40;99.90
24412;DHT22;12544;46.760;15.942;2023-07-29T00:54:13;20.30;99.90
24412;DHT22;12544;46.760;15.942;2023-07-29T00:56:39;20.30;99.90
24412;DHT22;12544;46.760;15.942;2023-07-29T00:59:05;20.30;99.90
24412;DHT22;12544;46.760;15.942;2023-07-29T01:01:32;20.30;99.90
24412;DHT22;12544;46.760;15.942;2023-07-29T01:03:58;20.20;99.90
24412;DHT22;12544;46.760;15.942;2023-07-29T01:06:34;20.20;99.90
24412;DHT22;12544;46.760;15.942;2023-07-29T01:09:10;20.20;99.90
24412;DHT22;12544;46.760;15.942;2023-07-29T01:12:01;20.20;99.90
24412;DHT22;12544;46.760;15.942;2023-07-29T01:14:36;20.20;99.90
24412;DHT22;12544;46.760;15.942;2023-07-29T01:17:08;20.10;99.90
24412;DHT22;12544;46.760;15.942;2023-07-29T01:20:06;20.10;99.90
24412;DHT22;12544;46.760;15.942;2023-07-29T01:22:32;20.00;99.90
24412;DHT22;12544;46.760;15.942;2023-07-29T01:24:58;20.00;99.90
24412;DHT22;12544;46.760;15.942;2023-07-29T01:27:25;20.00;99.90
24412;DHT22;12544;46.760;15.942;2023-07-29T01:29:50;20.00;99.90
24412;DHT22;12544;46.760;15.942;2023-07-29T01:35:28;20.00;99.90
24412;DHT22;12544;46.760;15.942;2023-07-29T01:41:04;19.80;99.90
24412;DHT22;12544;46.760;15.942;2023-07-29T01:43:32;19.70;99.90
24412;DHT22;12544;46.760;15.942;2023-07-29T01:45:58;19.60;99.90
24412;DHT22;12544;46.760;15.942;2023-07-29T01:48:23;19.60;99.90
24412;DHT22;12544;46.760;15.942;2023-07-29T01:50:49;19.50;99.90
24412;DHT22;12544;46.760;15.942;2023-07-29T01:53:15;19.50;99.90
24412;DHT22;12544;46.760;15.942;2023-07-29T01:55:42;19.40;99.90
24412;DHT22;12544;46.760;15.942;2023-07-29T01:58:07;19.30;99.90
24412;DHT22;12544;46.760;15.942;2023-07-29T02:00:33;19.30;99.90
24412;DHT22;12544;46.760;15.942;2023-07-29T02:02:59;19.30;99.90
24412;DHT22;12544;46.760;15.942;2023-07-29T02:05:24;19.20;99.90
24412;DHT22;12544;46.760;15.942;2023-07-29T02:07:50;19.20;99.90
24412;DHT22;12544;46.760;15.942;2023-07-29T02:10:15;19.20;99.90
24412;DHT22;12544;46.760;15.942;2023-07-29T02:12:41;19.10;99.90
24412;DHT22;12544;46.760;15.942;2023-07-29T02:15:07;19.00;99.90
24412;DHT22;12544;46.760;15.942;2023-07-29T02:17:33;19.00;99.90
24412;DHT22;12544;46.760;15.942;2023-07-29T02:19:59;19.00;99.90
24412;DHT22;12544;46.760;15.942;2023-07-29T02:22:24;19.00;99.90
24412;DHT22;12544;46.760;15.942;2023-07-29T02:24:50;19.00;99.90
24412;DHT22;12544;46.760;15.942;2023-07-29T02:27:16;19.00;99.90
24412;DHT22;12544;46.760;15.942;2023-07-29T02:29:41;19.00;99.90
24412;DHT22;12544;46.760;15.942;2023-07-29T02:32:07;19.00;99.90
24412;DHT22;12544;46.760;15.942;2023-07-29T02:34:32;19.00;99.90
24412;DHT22;12544;46.760;15.942;2023-07-29T02:36:58;18.90;99.90
24412;DHT22;12544;46.760;15.942;2023-07-29T02:39:24;18.90;99.90
24412;DHT22;12544;46.760;15.942;2023-07-29T02:41:49;18.90;99.90
24412;DHT22;12544;46.760;15.942;2023-07-29T02:44:15;18.90;99.90
24412;DHT22;12544;46.760;15.942;2023-07-29T02:46:50;18.80;99.90
24412;DHT22;12544;46.760;15.942;2023-07-29T02:49:17;18.80;99.90
24412;DHT22;12544;46.760;15.942;2023-07-29T02:51:43;18.80;99.90
24412;DHT22;12544;46.760;15.942;2023-07-29T02:54:08;18.80;99.90
24412;DHT22;12544;46.760;15.942;2023-07-29T02:56:34;18.70;99.90
24412;DHT22;12544;46.760;15.942;2023-07-29T02:59:00;18.70;99.90
24412;DHT22;12544;46.760;15.942;2023-07-29T03:01:26;18.70;99.90
24412;DHT22;12544;46.760;15.942;2023-07-29T03:03:52;18.70;99.90
24412;DHT22;12544;46.760;15.942;2023-07-29T03:06:18;18.70;99.90
24412;DHT22;12544;46.760;15.942;2023-07-29T03:11:49;18.70;99.90
24412;DHT22;12544;46.760;15.942;2023-07-29T03:14:16;18.60;99.90
24412;DHT22;12544;46.760;15.942;2023-07-29T03:16:41;18.60;99.90
24412;DHT22;12544;46.760;15.942;2023-07-29T03:19:07;18.50;99.90
24412;DHT22;12544;46.760;15.942;2023-07-29T03:21:33;18.50;99.90
24412;DHT22;12544;46.760;15.942;2023-07-29T03:23:58;18.50;99.90
24412;DHT22;12544;46.760;15.942;2023-07-29T03:26:31;18.40;99.90
24412;DHT22;12544;46.760;15.942;2023-07-29T03:28:56;18.50;99.90
24412;DHT22;12544;46.760;15.942;2023-07-29T03:31:22;18.50;99.90
24412;DHT22;12544;46.760;15.942;2023-07-29T03:33:48;18.50;99.90
24412;DHT22;12544;46.760;15.942;2023-07-29T03:36:13;18.50;99.90
24412;DHT22;12544;46.760;15.942;2023-07-29T03:38:39;18.50;99.90
24412;DHT22;12544;46.760;15.942;2023-07-29T03:41:07;18.40;99.90
24412;DHT22;12544;46.760;15.942;2023-07-29T03:43:34;18.40;99.90
24412;DHT22;12544;46.760;15.942;2023-07-29T03:46:00;18.40;99.90
24412;DHT22;12544;46.760;15.942;2023-07-29T03:48:26;18.40;99.90
24412;DHT22;12544;46.760;15.942;2023-07-29T03:50:51;18.50;99.90
24412;DHT22;12544;46.760;15.942;2023-07-29T03:53:17;18.40;99.90
24412;DHT22;12544;46.760;15.942;2023-07-29T03:56:19;18.40;99.90
24412;DHT22;12544;46.760;15.942;2023-07-29T03:58:45;18.40;99.90
24412;DHT22;12544;46.760;15.942;2023-07-29T04:01:12;18.40;99.90
24412;DHT22;12544;46.760;15.942;2023-07-29T04:03:37;18.40;99.90
24412;DHT22;12544;46.760;15.942;2023-07-29T04:06:03;18.40;99.90
24412;DHT22;12544;46.760;15.942;2023-07-29T04:08:29;18.40;99.90
24412;DHT22;12544;46.760;15.942;2023-07-29T04:10:54;18.40;99.90
24412;DHT22;12544;46.760;15.942;2023-07-29T04:16:43;18.50;99.90
24412;DHT22;12544;46.760;15.942;2023-07-29T04:19:08;18.50;99.90
24412;DHT22;12544;46.760;15.942;2023-07-29T04:21:34;18.60;99.90
24412;DHT22;12544;46.760;15.942;2023-07-29T04:23:59;18.60;99.90
24412;DHT22;12544;46.760;15.942;2023-07-29T04:26:25;18.60;99.90
24412;DHT22;12544;46.760;15.942;2023-07-29T04:28:50;18.60;99.90
24412;DHT22;12544;46.760;15.942;2023-07-29T04:31:17;18.60;99.90
24412;DHT22;12544;46.760;15.942;2023-07-29T04:33:42;18.60;99.90
24412;DHT22;12544;46.760;15.942;2023-07-29T04:36:08;18.70;99.90
24412;DHT22;12544;46.760;15.942;2023-07-29T04:38:34;18.70;99.90
24412;DHT22;12544;46.760;15.942;2023-07-29T04:40:59;18.60;99.90
24412;DHT22;12544;46.760;15.942;2023-07-29T04:43:30;18.70;99.90
24412;DHT22;12544;46.760;15.942;2023-07-29T04:45:55;18.80;99.90
24412;DHT22;12544;46.760;15.942;2023-07-29T04:48:21;18.80;99.90
24412;DHT22;12544;46.760;15.942;2023-07-29T04:50:47;18.80;99.90
24412;DHT22;12544;46.760;15.942;2023-07-29T04:53:13;18.80;99.90
24412;DHT22;12544;46.760;15.942;2023-07-29T04:55:40;18.90;99.90
24412;DHT22;12544;46.760;15.942;2023-07-29T04:58:06;18.90;99.90
24412;DHT22;12544;46.760;15.942;2023-07-29T05:00:32;18.90;99.90
24412;DHT22;12544;46.760;15.942;2023-07-29T05:02:59;18.90;99.90
24412;DHT22;12544;46.760;15.942;2023-07-29T05:05:24;19.00;99.90
24412;DHT22;12544;46.760;15.942;2023-07-29T05:07:50;19.00;99.90
24412;DHT22;12544;46.760;15.942;2023-07-29T05:10:15;19.10;99.90
24412;DHT22;12544;46.760;15.942;2023-07-29T05:12:41;19.20;99.90
24412;DHT22;12544;46.760;15.942;2023-07-29T05:15:07;19.20;99.90
24412;DHT22;12544;46.760;15.942;2023-07-29T05:17:33;19.30;99.90
24412;DHT22;12544;46.760;15.942;2023-07-29T05:19:59;19.40;99.90
24412;DHT22;12544;46.760;15.942;2023-07-29T05:22:24;19.40;99.90
24412;DHT22;12544;46.760;15.942;2023-07-29T05:24:50;19.50;99.90
24412;DHT22;12544;46.760;15.942;2023-07-29T05:27:16;19.60;99.90
24412;DHT22;12544;46.760;15.942;2023-07-29T05:29:41;19.60;99.90
24412;DHT22;12544;46.760;15.942;2023-07-29T05:32:07;19.70;99.90
24412;DHT22;12544;46.760;15.942;2023-07-29T05:34:33;19.80;99.90
24412;DHT22;12544;46.760;15.942;2023-07-29T05:36:58;19.90;99.90
24412;DHT22;12544;46.760;15.942;2023-07-29T05:39:24;19.90;99.90
24412;DHT22;12544;46.760;15.942;2023-07-29T05:41:49;20.10;99.90
24412;DHT22;12544;46.760;15.942;2023-07-29T05:44:15;20.10;99.90
24412;DHT22;12544;46.760;15.942;2023-07-29T05:46:41;20.20;99.90
24412;DHT22;12544;46.760;15.942;2023-07-29T05:49:06;20.30;99.90
24412;DHT22;12544;46.760;15.942;2023-07-29T05:51:32;20.30;99.90
24412;DHT22;12544;46.760;15.942;2023-07-29T05:53:58;20.40;99.90
24412;DHT22;12544;46.760;15.942;2023-07-29T05:56:23;20.50;99.90
24412;DHT22;12544;46.760;15.942;2023-07-29T05:58:49;20.70;99.90
24412;DHT22;12544;46.760;15.942;2023-07-29T06:01:15;20.80;99.90
24412;DHT22;12544;46.760;15.942;2023-07-29T06:03:41;21.00;99.90
24412;DHT22;12544;46.760;15.942;2023-07-29T06:06:06;21.10;99.90
24412;DHT22;12544;46.760;15.942;2023-07-29T06:08:32;21.20;99.90
24412;DHT22;12544;46.760;15.942;2023-07-29T06:11:00;21.30;99.90
24412;DHT22;12544;46.760;15.942;2023-07-29T06:13:25;21.30;99.90
24412;DHT22;12544;46.760;15.942;2023-07-29T06:15:51;21.40;99.90
24412;DHT22;12544;46.760;15.942;2023-07-29T06:18:16;21.40;99.90
24412;DHT22;12544;46.760;15.942;2023-07-29T06:20:42;21.40;99.90
24412;DHT22;12544;46.760;15.942;2023-07-29T06:23:08;21.50;99.90
24412;DHT22;12544;46.760;15.942;2023-07-29T06:25:34;21.60;99.90
24412;DHT22;12544;46.760;15.942;2023-07-29T06:27:59;21.60;99.90
24412;DHT22;12544;46.760;15.942;2023-07-29T06:30:25;21.70;99.90
24412;DHT22;12544;46.760;15.942;2023-07-29T06:32:51;21.70;99.90
24412;DHT22;12544;46.760;15.942;2023-07-29T06:35:16;21.80;99.90
24412;DHT22;12544;46.760;15.942;2023-07-29T06:37:42;21.80;99.90
24412;DHT22;12544;46.760;15.942;2023-07-29T06:40:08;21.80;99.90
24412;DHT22;12544;46.760;15.942;2023-07-29T06:42:34;21.80;99.90
24412;DHT22;12544;46.760;15.942;2023-07-29T06:44:59;21.80;99.90
24412;DHT22;12544;46.760;15.942;2023-07-29T06:47:25;21.90;99.90
24412;DHT22;12544;46.760;15.942;2023-07-29T06:49:50;21.90;99.90
24412;DHT22;12544;46.760;15.942;2023-07-29T06:52:16;21.90;99.90
24412;DHT22;12544;46.760;15.942;2023-07-29T06:54:41;21.90;99.90
24412;DHT22;12544;46.760;15.942;2023-07-29T06:57:09;21.90;99.90
24412;DHT22;12544;46.760;15.942;2023-07-29T06:59:35;21.90;99.90
24412;DHT22;12544;46.760;15.942;2023-07-29T07:02:00;21.90;99.90
24412;DHT22;12544;46.760;15.942;2023-07-29T07:04:27;22.00;99.90
24412;DHT22;12544;46.760;15.942;2023-07-29T07:06:52;22.00;99.90
24412;DHT22;12544;46.760;15.942;2023-07-29T07:09:19;22.00;99.90
24412;DHT22;12544;46.760;15.942;2023-07-29T07:11:44;22.00;99.90
24412;DHT22;12544;46.760;15.942;2023-07-29T07:14:11;22.10;99.90
24412;DHT22;12544;46.760;15.942;2023-07-29T07:16:37;22.10;99.90
24412;DHT22;12544;46.760;15.942;2023-07-29T07:19:04;22.20;99.90
24412;DHT22;12544;46.760;15.942;2023-07-29T07:21:30;22.20;99.90
24412;DHT22;12544;46.760;15.942;2023-07-29T07:23:57;22.30;99.90
24412;DHT22;12544;46.760;15.942;2023-07-29T07:26:23;22.30;99.90
24412;DHT22;12544;46.760;15.942;2023-07-29T07:28:49;22.30;99.90
24412;DHT22;12544;46.760;15.942;2023-07-29T07:31:15;22.40;99.90
24412;DHT22;12544;46.760;15.942;2023-07-29T07:33:41;22.50;99.90
24412;DHT22;12544;46.760;15.942;2023-07-29T07:36:07;22.60;99.90
24412;DHT22;12544;46.760;15.942;2023-07-29T07:38:33;22.70;99.90
24412;DHT22;12544;46.760;15.942;2023-07-29T07:40:58;22.80;99.90
24412;DHT22;12544;46.760;15.942;2023-07-29T07:43:24;22.80;99.90
24412;DHT22;12544;46.760;15.942;2023-07-29T07:45:51;22.90;99.90
24412;DHT22;12544;46.760;15.942;2023-07-29T07:48:22;23.00;99.90
24412;DHT22;12544;46.760;15.942;2023-07-29T07:50:48;23.10;99.90
24412;DHT22;12544;46.760;15.942;2023-07-29T07:53:13;23.20;99.90
24412;DHT22;12544;46.760;15.942;2023-07-29T07:55:39;23.40;99.90
24412;DHT22;12544;46.760;15.942;2023-07-29T07:58:04;23.50;99.90
24412;DHT22;12544;46.760;15.942;2023-07-29T08:00:30;23.70;99.90
24412;DHT22;12544;46.760;15.942;2023-07-29T08:02:55;23.70;99.90
24412;DHT22;12544;46.760;15.942;2023-07-29T08:05:21;23.80;99.90
24412;DHT22;12544;46.760;15.942;2023-07-29T08:07:46;23.80;99.90
24412;DHT22;12544;46.760;15.942;2023-07-29T08:10:12;23.70;99.90
24412;DHT22;12544;46.760;15.942;2023-07-29T08:12:38;23.70;99.90
24412;DHT22;12544;46.760;15.942;2023-07-29T08:15:03;23.70;99.90
24412;DHT22;12544;46.760;15.942;2023-07-29T08:17:29;23.80;99.90
24412;DHT22;12544;46.760;15.942;2023-07-29T08:19:55;24.00;99.90
24412;DHT22;12544;46.760;15.942;2023-07-29T08:22:22;24.20;99.90
24412;DHT22;12544;46.760;15.942;2023-07-29T08:24:48;24.40;99.90
24412;DHT22;12544;46.760;15.942;2023-07-29T08:27:13;24.50;99.90
24412;DHT22;12544;46.760;15.942;2023-07-29T08:29:39;24.60;99.90
24412;DHT22;12544;46.760;15.942;2023-07-29T08:32:05;24.70;99.90
24412;DHT22;12544;46.760;15.942;2023-07-29T08:34:31;24.70;99.90
24412;DHT22;12544;46.760;15.942;2023-07-29T08:36:57;24.80;99.90
24412;DHT22;12544;46.760;15.942;2023-07-29T08:39:22;24.80;99.90
24412;DHT22;12544;46.760;15.942;2023-07-29T08:42:07;24.80;99.90
24412;DHT22;12544;46.760;15.942;2023-07-29T08:44:44;24.80;99.90
24412;DHT22;12544;46.760;15.942;2023-07-29T08:47:11;24.70;99.90
24412;DHT22;12544;46.760;15.942;2023-07-29T08:49:39;24.70;99.90
24412;DHT22;12544;46.760;15.942;2023-07-29T08:52:06;24.60;99.90
24412;DHT22;12544;46.760;15.942;2023-07-29T08:54:32;24.60;99.90
24412;DHT22;12544;46.760;15.942;2023-07-29T08:56:59;24.50;99.90
24412;DHT22;12544;46.760;15.942;2023-07-29T08:59:26;24.60;99.90
24412;DHT22;12544;46.760;15.942;2023-07-29T09:01:54;24.60;99.90
24412;DHT22;12544;46.760;15.942;2023-07-29T09:04:22;24.70;99.90
24412;DHT22;12544;46.760;15.942;2023-07-29T09:06:50;24.70;99.90
24412;DHT22;12544;46.760;15.942;2023-07-29T09:09:16;24.80;99.90
24412;DHT22;12544;46.760;15.942;2023-07-29T09:11:41;24.80;99.90
24412;DHT22;12544;46.760;15.942;2023-07-29T09:14:07;24.80;99.90
24412;DHT22;12544;46.760;15.942;2023-07-29T09:16:33;24.80;99.90
24412;DHT22;12544;46.760;15.942;2023-07-29T09:19:02;24.80;99.90
24412;DHT22;12544;46.760;15.942;2023-07-29T09:21:29;24.80;99.90
24412;DHT22;12544;46.760;15.942;2023-07-29T09:23:55;24.80;99.90
24412;DHT22;12544;46.760;15.942;2023-07-29T09:26:25;24.80;99.90
24412;DHT22;12544;46.760;15.942;2023-07-29T09:28:56;24.90;99.90
24412;DHT22;12544;46.760;15.942;2023-07-29T09:31:23;24.90;99.90
24412;DHT22;12544;46.760;15.942;2023-07-29T09:33:49;25.00;99.90
24412;DHT22;12544;46.760;15.942;2023-07-29T09:36:21;25.20;99.90
24412;DHT22;12544;46.760;15.942;2023-07-29T09:38:47;25.30;99.90
24412;DHT22;12544;46.760;15.942;2023-07-29T09:41:15;25.40;99.90
24412;DHT22;12544;46.760;15.942;2023-07-29T09:43:40;25.50;99.90
24412;DHT22;12544;46.760;15.942;2023-07-29T09:46:06;25.50;99.90
24412;DHT22;12544;46.760;15.942;2023-07-29T09:48:53;25.70;99.90
24412;DHT22;12544;46.760;15.942;2023-07-29T09:51:20;25.90;99.90
24412;DHT22;12544;46.760;15.942;2023-07-29T09:53:46;26.00;99.90
24412;DHT22;12544;46.760;15.942;2023-07-29T09:56:13;26.10;99.90
24412;DHT22;12544;46.760;15.942;2023-07-29T09:58:39;26.30;99.90
24412;DHT22;12544;46.760;15.942;2023-07-29T10:01:08;26.40;99.90
24412;DHT22;12544;46.760;15.942;2023-07-29T10:03:34;26.60;99.90
24412;DHT22;12544;46.760;15.942;2023-07-29T10:06:06;26.70;99.90
24412;DHT22;12544;46.760;15.942;2023-07-29T10:08:33;26.80;99.90
24412;DHT22;12544;46.760;15.942;2023-07-29T10:11:01;26.90;99.90
24412;DHT22;12544;46.760;15.942;2023-07-29T10:13:28;27.10;99.90
24412;DHT22;12544;46.760;15.942;2023-07-29T10:15:54;27.20;99.90
24412;DHT22;12544;46.760;15.942;2023-07-29T10:18:20;27.40;99.90
24412;DHT22;12544;46.760;15.942;2023-07-29T10:20:48;27.50;99.90
24412;DHT22;12544;46.760;15.942;2023-07-29T10:23:22;27.60;99.90
24412;DHT22;12544;46.760;15.942;2023-07-29T10:26:06;27.70;99.90
24412;DHT22;12544;46.760;15.942;2023-07-29T10:28:39;27.80;99.90
24412;DHT22;12544;46.760;15.942;2023-07-29T10:31:06;27.90;99.90
24412;DHT22;12544;46.760;15.942;2023-07-29T10:33:33;28.10;99.90
24412;DHT22;12544;46.760;15.942;2023-07-29T10:36:15;28.10;99.90
24412;DHT22;12544;46.760;15.942;2023-07-29T10:38:41;28.20;99.90
24412;DHT22;12544;46.760;15.942;2023-07-29T10:41:07;28.40;99.90
24412;DHT22;12544;46.760;15.942;2023-07-29T10:43:35;28.50;99.90
24412;DHT22;12544;46.760;15.942;2023-07-29T10:49:23;28.90;99.90
24412;DHT22;12544;46.760;15.942;2023-07-29T10:51:49;29.20;99.90
24412;DHT22;12544;46.760;15.942;2023-07-29T10:54:14;29.30;99.90
24412;DHT22;12544;46.760;15.942;2023-07-29T10:56:43;29.30;99.90
24412;DHT22;12544;46.760;15.942;2023-07-29T11:01:39;29.40;99.90
24412;DHT22;12544;46.760;15.942;2023-07-29T11:15:27;29.40;99.90
24412;DHT22;12544;46.760;15.942;2023-07-29T11:17:59;29.40;99.90
24412;DHT22;12544;46.760;15.942;2023-07-29T11:20:34;29.60;99.90
24412;DHT22;12544;46.760;15.942;2023-07-29T11:23:01;29.70;99.90
24412;DHT22;12544;46.760;15.942;2023-07-29T11:25:29;29.70;99.90
24412;DHT22;12544;46.760;15.942;2023-07-29T11:27:57;29.80;99.90
24412;DHT22;12544;46.760;15.942;2023-07-29T11:30:24;30.00;99.90
24412;DHT22;12544;46.760;15.942;2023-07-29T11:32:53;30.00;99.70
24412;DHT22;12544;46.760;15.942;2023-07-29T11:35:19;30.10;99.90
24412;DHT22;12544;46.760;15.942;2023-07-29T11:37:49;30.10;99.90
24412;DHT22;12544;46.760;15.942;2023-07-29T11:40:19;30.10;99.90
24412;DHT22;12544;46.760;15.942;2023-07-29T11:42:46;30.30;99.90
24412;DHT22;12544;46.760;15.942;2023-07-29T11:45:13;30.20;99.90
24412;DHT22;12544;46.760;15.942;2023-07-29T11:47:39;30.20;99.90
24412;DHT22;12544;46.760;15.942;2023-07-29T11:50:10;30.20;99.90
24412;DHT22;12544;46.760;15.942;2023-07-29T11:52:37;30.20;99.90
24412;DHT22;12544;46.760;15.942;2023-07-29T11:55:36;30.50;99.90
24412;DHT22;12544;46.760;15.942;2023-07-29T11:58:02;30.70;99.90
24412;DHT22;12544;46.760;15.942;2023-07-29T12:00:28;30.80;99.90
24412;DHT22;12544;46.760;15.942;2023-07-29T12:02:54;30.80;99.90
24412;DHT22;12544;46.760;15.942;2023-07-29T12:05:21;30.70;99.90
24412;DHT22;12544;46.760;15.942;2023-07-29T12:11:07;30.80;99.50
24412;DHT22;12544;46.760;15.942;2023-07-29T12:13:33;30.90;99.80
24412;DHT22;12544;46.760;15.942;2023-07-29T12:16:03;31.00;99.10
24412;DHT22;12544;46.760;15.942;2023-07-29T12:18:36;31.00;97.90
24412;DHT22;12544;46.760;15.942;2023-07-29T12:21:02;30.80;97.80
24412;DHT22;12544;46.760;15.942;2023-07-29T12:23:29;30.80;98.40
24412;DHT22;12544;46.760;15.942;2023-07-29T12:32:25;30.80;98.40
24412;DHT22;12544;46.760;15.942;2023-07-29T12:34:53;30.80;99.40
24412;DHT22;12544;46.760;15.942;2023-07-29T12:37:19;31.00;99.90
24412;DHT22;12544;46.760;15.942;2023-07-29T12:39:44;31.10;99.90
24412;DHT22;12544;46.760;15.942;2023-07-29T12:42:10;31.30;99.20
24412;DHT22;12544;46.760;15.942;2023-07-29T12:44:38;31.40;98.80
24412;DHT22;12544;46.760;15.942;2023-07-29T12:47:05;31.40;98.30
24412;DHT22;12544;46.760;15.942;2023-07-29T12:49:31;31.40;98.40
24412;DHT22;12544;46.760;15.942;2023-07-29T12:51:57;31.50;98.40
24412;DHT22;12544;46.760;15.942;2023-07-29T12:54:23;31.70;99.00
24412;DHT22;12544;46.760;15.942;2023-07-29T12:56:49;31.80;96.10
24412;DHT22;12544;46.760;15.942;2023-07-29T12:59:14;31.90;95.20
24412;DHT22;12544;46.760;15.942;2023-07-29T13:01:40;31.90;95.60
24412;DHT22;12544;46.760;15.942;2023-07-29T13:07:27;31.90;97.50
24412;DHT22;12544;46.760;15.942;2023-07-29T13:09:53;31.90;96.80
24412;DHT22;12544;46.760;15.942;2023-07-29T13:12:19;31.90;95.90
24412;DHT22;12544;46.760;15.942;2023-07-29T13:14:45;31.80;96.60
24412;DHT22;12544;46.760;15.942;2023-07-29T13:20:19;31.80;97.50
24412;DHT22;12544;46.760;15.942;2023-07-29T13:22:44;31.90;96.00
24412;DHT22;12544;46.760;15.942;2023-07-29T13:25:10;31.90;95.60
24412;DHT22;12544;46.760;15.942;2023-07-29T13:27:35;31.80;94.90
24412;DHT22;12544;46.760;15.942;2023-07-29T13:30:01;31.90;95.40
24412;DHT22;12544;46.760;15.942;2023-07-29T13:32:27;31.90;95.50
24412;DHT22;12544;46.760;15.942;2023-07-29T13:34:52;32.10;94.80
24412;DHT22;12544;46.760;15.942;2023-07-29T13:37:18;32.10;92.90
24412;DHT22;12544;46.760;15.942;2023-07-29T13:39:43;32.10;92.50
24412;DHT22;12544;46.760;15.942;2023-07-29T13:42:09;32.10;92.80
24412;DHT22;12544;46.760;15.942;2023-07-29T13:44:35;32.10;93.80
24412;DHT22;12544;46.760;15.942;2023-07-29T13:47:00;32.10;91.00
24412;DHT22;12544;46.760;15.942;2023-07-29T13:49:26;32.10;92.30
24412;DHT22;12544;46.760;15.942;2023-07-29T13:51:51;32.10;91.60
24412;DHT22;12544;46.760;15.942;2023-07-29T13:54:17;32.10;90.30
24412;DHT22;12544;46.760;15.942;2023-07-29T13:56:43;32.10;91.40
24412;DHT22;12544;46.760;15.942;2023-07-29T13:59:08;32.20;92.10
24412;DHT22;12544;46.760;15.942;2023-07-29T14:01:34;32.30;90.50
24412;DHT22;12544;46.760;15.942;2023-07-29T14:03:59;32.40;90.50
24412;DHT22;12544;46.760;15.942;2023-07-29T14:06:27;32.30;90.30
24412;DHT22;12544;46.760;15.942;2023-07-29T14:08:52;32.40;90.20
24412;DHT22;12544;46.760;15.942;2023-07-29T14:11:18;32.40;91.50
24412;DHT22;12544;46.760;15.942;2023-07-29T14:13:44;32.40;92.20
24412;DHT22;12544;46.760;15.942;2023-07-29T14:16:09;32.50;92.40
24412;DHT22;12544;46.760;15.942;2023-07-29T14:18:35;32.60;91.80
24412;DHT22;12544;46.760;15.942;2023-07-29T14:21:00;32.80;91.50
24412;DHT22;12544;46.760;15.942;2023-07-29T14:23:26;32.70;91.90
24412;DHT22;12544;46.760;15.942;2023-07-29T14:25:51;32.70;93.30
24412;DHT22;12544;46.760;15.942;2023-07-29T14:28:17;32.70;92.20
24412;DHT22;12544;46.760;15.942;2023-07-29T14:30:43;32.70;91.70
24412;DHT22;12544;46.760;15.942;2023-07-29T14:33:08;32.70;91.50
24412;DHT22;12544;46.760;15.942;2023-07-29T14:35:34;32.70;92.40
24412;DHT22;12544;46.760;15.942;2023-07-29T14:38:00;32.40;92.30
24412;DHT22;12544;46.760;15.942;2023-07-29T14:40:25;31.90;92.00
24412;DHT22;12544;46.760;15.942;2023-07-29T14:42:52;31.50;93.10
24412;DHT22;12544;46.760;15.942;2023-07-29T14:45:17;31.20;94.20
24412;DHT22;12544;46.760;15.942;2023-07-29T14:47:43;30.90;94.80
24412;DHT22;12544;46.760;15.942;2023-07-29T14:50:09;30.90;95.00
24412;DHT22;12544;46.760;15.942;2023-07-29T14:52:34;30.80;94.20
24412;DHT22;12544;46.760;15.942;2023-07-29T14:55:00;30.80;95.40
24412;DHT22;12544;46.760;15.942;2023-07-29T14:57:25;30.60;94.70
24412;DHT22;12544;46.760;15.942;2023-07-29T14:59:51;30.60;95.30
24412;DHT22;12544;46.760;15.942;2023-07-29T15:02:17;30.60;95.60
24412;DHT22;12544;46.760;15.942;2023-07-29T15:04:43;30.50;94.80
24412;DHT22;12544;46.760;15.942;2023-07-29T15:07:09;30.50;95.50
24412;DHT22;12544;46.760;15.942;2023-07-29T15:09:34;30.30;96.10
24412;DHT22;12544;46.760;15.942;2023-07-29T15:12:00;30.20;95.80
24412;DHT22;12544;46.760;15.942;2023-07-29T15:14:26;30.20;96.00
24412;DHT22;12544;46.760;15.942;2023-07-29T15:16:51;30.30;97.00
24412;DHT22;12544;46.760;15.942;2023-07-29T15:19:17;30.50;97.40
24412;DHT22;12544;46.760;15.942;2023-07-29T15:21:42;30.80;96.70
24412;DHT22;12544;46.760;15.942;2023-07-29T15:24:08;31.00;96.70
24412;DHT22;12544;46.760;15.942;2023-07-29T15:26:34;31.30;96.40
24412;DHT22;12544;46.760;15.942;2023-07-29T15:29:00;31.50;95.50
24412;DHT22;12544;46.760;15.942;2023-07-29T15:31:52;31.70;94.50
24412;DHT22;12544;46.760;15.942;2023-07-29T15:34:18;31.90;94.20
24412;DHT22;12544;46.760;15.942;2023-07-29T15:36:43;31.90;94.90
24412;DHT22;12544;46.760;15.942;2023-07-29T15:39:09;32.10;96.10
24412;DHT22;12544;46.760;15.942;2023-07-29T15:41:35;32.00;93.40
24412;DHT22;12544;46.760;15.942;2023-07-29T15:44:01;32.10;95.50
24412;DHT22;12544;46.760;15.942;2023-07-29T15:46:26;32.30;95.30
24412;DHT22;12544;46.760;15.942;2023-07-29T15:48:52;32.40;94.50
24412;DHT22;12544;46.760;15.942;2023-07-29T15:51:23;32.50;93.90
24412;DHT22;12544;46.760;15.942;2023-07-29T15:53:48;32.50;92.70
24412;DHT22;12544;46.760;15.942;2023-07-29T15:56:14;32.40;92.20
24412;DHT22;12544;46.760;15.942;2023-07-29T15:58:40;32.40;93.60